sensor_id;sensor_type;location;lat;lon;timestamp;temperature;humidity
19025;DHT22;9645;51.448;6.260;2022-09-09T00:41:18;14.30;99.90
19025;DHT22;9645;51.448;6.260;2022-09-09T00:46:28;14.20;99.90
19025;DHT22;9645;51.448;6.260;2022-09-09T00:49:08;14.20;99.90
19025;DHT22;9645;51.448;6.260;2022-09-09T01:07:06;14.00;99.90
19025;DHT22;9645;51.448;6.260;2022-09-09T01:14:44;14.00;99.90
19025;DHT22;9645;51.448;6.260;2022-09-09T01:17:17;14.10;99.90
19025;DHT22;9645;51.448;6.260;2022-09-09T01:19:55;14.10;99.90
19025;DHT22;9645;51.448;6.260;2022-09-09T01:22:30;14.10;99.90
19025;DHT22;9645;51.448;6.260;2022-09-09T01:25:22;14.10;99.90
19025;DHT22;9645;51.448;6.260;2022-09-09T01:27:56;14.20;99.90
19025;DHT22;9645;51.448;6.260;2022-09-09T01:30:25;14.20;99.90
19025;DHT22;9645;51.448;6.260;2022-09-09T01:32:55;14.20;99.90
19025;DHT22;9645;51.448;6.260;2022-09-09T01:35:32;14.20;99.90
19025;DHT22;9645;51.448;6.260;2022-09-09T01:38:04;14.20;99.90
19025;DHT22;9645;51.448;6.260;2022-09-09T01:40:32;14.30;99.90
19025;DHT22;9645;51.448;6.260;2022-09-09T01:43:00;14.30;99.90
19025;DHT22;9645;51.448;6.260;2022-09-09T01:45:27;14.30;99.90
19025;DHT22;9645;51.448;6.260;2022-09-09T01:47:54;14.30;99.90
19025;DHT22;9645;51.448;6.260;2022-09-09T01:50:22;14.30;99.90
19025;DHT22;9645;51.448;6.260;2022-09-09T01:52:52;14.30;99.90
19025;DHT22;9645;51.448;6.260;2022-09-09T01:55:26;14.30;99.90
19025;DHT22;9645;51.448;6.260;2022-09-09T01:58:02;14.30;99.90
19025;DHT22;9645;51.448;6.260;2022-09-09T02:00:35;14.40;99.90
19025;DHT22;9645;51.448;6.260;2022-09-09T02:03:11;14.40;99.90
19025;DHT22;9645;51.448;6.260;2022-09-09T02:05:43;14.40;99.90
19025;DHT22;9645;51.448;6.260;2022-09-09T02:08:17;14.30;99.90
19025;DHT22;9645;51.448;6.260;2022-09-09T02:10:50;14.30;99.90
19025;DHT22;9645;51.448;6.260;2022-09-09T02:13:21;14.40;99.90
19025;DHT22;9645;51.448;6.260;2022-09-09T02:15:53;14.30;99.90
19025;DHT22;9645;51.448;6.260;2022-09-09T02:18:25;14.30;99.90
19025;DHT22;9645;51.448;6.260;2022-09-09T02:20:53;14.30;99.90
19025;DHT22;9645;51.448;6.260;2022-09-09T02:23:21;14.30;99.90
19025;DHT22;9645;51.448;6.260;2022-09-09T02:25:48;14.30;99.90
19025;DHT22;9645;51.448;6.260;2022-09-09T02:28:20;14.30;99.90
19025;DHT22;9645;51.448;6.260;2022-09-09T02:30:50;14.30;99.90
19025;DHT22;9645;51.448;6.260;2022-09-09T02:33:24;14.30;99.90
19025;DHT22;9645;51.448;6.260;2022-09-09T02:35:52;14.30;99.90
19025;DHT22;9645;51.448;6.260;2022-09-09T02:38:24;14.30;99.90
19025;DHT22;9645;51.448;6.260;2022-09-09T02:40:53;14.30;99.90
19025;DHT22;9645;51.448;6.260;2022-09-09T02:43:21;14.30;99.90
19025;DHT22;9645;51.448;6.260;2022-09-09T02:46:03;14.30;99.90
19025;DHT22;9645;51.448;6.260;2022-09-09T02:48:39;14.30;99.90
19025;DHT22;9645;51.448;6.260;2022-09-09T02:51:15;14.30;99.90
19025;DHT22;9645;51.448;6.260;2022-09-09T02:53:49;14.30;99.90
19025;DHT22;9645;51.448;6.260;2022-09-09T02:56:18;14.30;99.90
19025;DHT22;9645;51.448;6.260;2022-09-09T02:58:49;14.30;99.90
19025;DHT22;9645;51.448;6.260;2022-09-09T03:01:17;14.30;99.90
19025;DHT22;9645;51.448;6.260;2022-09-09T03:03:44;14.30;99.90
19025;DHT22;9645;51.448;6.260;2022-09-09T03:06:12;14.30;99.90
19025;DHT22;9645;51.448;6.260;2022-09-09T03:08:39;14.40;99.90
19025;DHT22;9645;51.448;6.260;2022-09-09T03:11:07;14.40;99.90
19025;DHT22;9645;51.448;6.260;2022-09-09T03:13:35;14.50;99.90
19025;DHT22;9645;51.448;6.260;2022-09-09T03:16:05;14.60;99.90
19025;DHT22;9645;51.448;6.260;2022-09-09T03:18:32;14.60;99.90
19025;DHT22;9645;51.448;6.260;2022-09-09T03:21:00;14.60;99.90
19025;DHT22;9645;51.448;6.260;2022-09-09T03:23:27;14.70;99.90
19025;DHT22;9645;51.448;6.260;2022-09-09T03:25:54;14.70;99.90
19025;DHT22;9645;51.448;6.260;2022-09-09T03:28:22;14.70;99.90
19025;DHT22;9645;51.448;6.260;2022-09-09T03:30:58;14.70;99.90
19025;DHT22;9645;51.448;6.260;2022-09-09T03:33:27;14.70;99.90
19025;DHT22;9645;51.448;6.260;2022-09-09T03:35:55;14.70;99.90
19025;DHT22;9645;51.448;6.260;2022-09-09T03:38:23;14.80;99.90
19025;DHT22;9645;51.448;6.260;2022-09-09T03:40:50;14.80;99.90
19025;DHT22;9645;51.448;6.260;2022-09-09T03:43:20;14.80;99.90
19025;DHT22;9645;51.448;6.260;2022-09-09T03:45:47;14.80;99.90
19025;DHT22;9645;51.448;6.260;2022-09-09T03:48:14;14.80;99.90
19025;DHT22;9645;51.448;6.260;2022-09-09T03:50:46;14.80;99.90
19025;DHT22;9645;51.448;6.260;2022-09-09T03:53:14;14.90;99.90
19025;DHT22;9645;51.448;6.260;2022-09-09T03:55:44;14.80;99.90
19025;DHT22;9645;51.448;6.260;2022-09-09T03:58:11;14.80;99.90
19025;DHT22;9645;51.448;6.260;2022-09-09T04:00:39;14.80;99.90
19025;DHT22;9645;51.448;6.260;2022-09-09T04:03:08;14.90;99.90
19025;DHT22;9645;51.448;6.260;2022-09-09T04:05:35;14.90;99.90
19025;DHT22;9645;51.448;6.260;2022-09-09T04:08:06;14.80;99.90
19025;DHT22;9645;51.448;6.260;2022-09-09T04:10:33;14.80;99.90
19025;DHT22;9645;51.448;6.260;2022-09-09T04:13:01;14.80;99.90
19025;DHT22;9645;51.448;6.260;2022-09-09T04:15:28;14.80;99.90
19025;DHT22;9645;51.448;6.260;2022-09-09T04:17:55;14.80;99.90
19025;DHT22;9645;51.448;6.260;2022-09-09T04:20:25;14.80;99.90
19025;DHT22;9645;51.448;6.260;2022-09-09T04:22:52;14.80;99.90
19025;DHT22;9645;51.448;6.260;2022-09-09T04:25:20;14.80;99.90
19025;DHT22;9645;51.448;6.260;2022-09-09T04:27:47;14.80;99.90
19025;DHT22;9645;51.448;6.260;2022-09-09T04:30:17;14.80;99.90
19025;DHT22;9645;51.448;6.260;2022-09-09T04:32:44;14.80;99.90
19025;DHT22;9645;51.448;6.260;2022-09-09T04:35:11;14.80;99.90
19025;DHT22;9645;51.448;6.260;2022-09-09T04:37:38;14.80;99.90
19025;DHT22;9645;51.448;6.260;2022-09-09T04:40:06;14.80;99.90
19025;DHT22;9645;51.448;6.260;2022-09-09T04:42:36;14.80;99.90
19025;DHT22;9645;51.448;6.260;2022-09-09T04:45:05;14.80;99.90
19025;DHT22;9645;51.448;6.260;2022-09-09T04:47:32;14.80;99.90
19025;DHT22;9645;51.448;6.260;2022-09-09T04:50:00;14.80;99.90
19025;DHT22;9645;51.448;6.260;2022-09-09T04:52:27;14.90;99.90
19025;DHT22;9645;51.448;6.260;2022-09-09T04:54:54;14.80;99.90
19025;DHT22;9645;51.448;6.260;2022-09-09T04:57:21;14.80;99.90
19025;DHT22;9645;51.448;6.260;2022-09-09T04:59:50;14.90;99.90
19025;DHT22;9645;51.448;6.260;2022-09-09T05:02:17;14.90;99.90
19025;DHT22;9645;51.448;6.260;2022-09-09T05:04:44;14.90;99.90
19025;DHT22;9645;51.448;6.260;2022-09-09T05:07:11;14.90;99.90
19025;DHT22;9645;51.448;6.260;2022-09-09T05:09:39;15.00;99.90
19025;DHT22;9645;51.448;6.260;2022-09-09T05:12:06;15.00;99.90
19025;DHT22;9645;51.448;6.260;2022-09-09T05:14:33;15.00;99.90
19025;DHT22;9645;51.448;6.260;2022-09-09T05:17:02;15.00;99.90
19025;DHT22;9645;51.448;6.260;2022-09-09T05:19:30;15.10;99.90
19025;DHT22;9645;51.448;6.260;2022-09-09T05:21:57;15.10;99.90
19025;DHT22;9645;51.448;6.260;2022-09-09T05:24:24;15.10;99.90
19025;DHT22;9645;51.448;6.260;2022-09-09T05:26:51;15.10;99.90
19025;DHT22;9645;51.448;6.260;2022-09-09T05:29:18;15.10;99.90
19025;DHT22;9645;51.448;6.260;2022-09-09T05:31:45;15.20;99.90
19025;DHT22;9645;51.448;6.260;2022-09-09T05:34:14;15.20;99.90
19025;DHT22;9645;51.448;6.260;2022-09-09T05:36:41;15.30;99.90
19025;DHT22;9645;51.448;6.260;2022-09-09T05:39:07;15.30;99.90
19025;DHT22;9645;51.448;6.260;2022-09-09T05:41:34;15.40;99.90
19025;DHT22;9645;51.448;6.260;2022-09-09T05:44:02;15.40;99.90
19025;DHT22;9645;51.448;6.260;2022-09-09T05:46:29;15.50;99.90
19025;DHT22;9645;51.448;6.260;2022-09-09T05:48:56;15.50;99.90
19025;DHT22;9645;51.448;6.260;2022-09-09T05:51:27;15.60;99.90
19025;DHT22;9645;51.448;6.260;2022-09-09T05:53:55;15.60;99.90
19025;DHT22;9645;51.448;6.260;2022-09-09T05:56:25;15.70;99.90
19025;DHT22;9645;51.448;6.260;2022-09-09T06:03:49;17.40;99.90
19025;DHT22;9645;51.448;6.260;2022-09-09T06:06:18;17.20;99.90
19025;DHT22;9645;51.448;6.260;2022-09-09T06:08:51;16.80;99.90
19025;DHT22;9645;51.448;6.260;2022-09-09T06:11:20;16.50;99.90
19025;DHT22;9645;51.448;6.260;2022-09-09T06:13:47;16.30;99.90
19025;DHT22;9645;51.448;6.260;2022-09-09T06:16:18;16.20;99.90
19025;DHT22;9645;51.448;6.260;2022-09-09T06:18:45;16.20;99.90
19025;DHT22;9645;51.448;6.260;2022-09-09T06:21:16;16.30;99.90
19025;DHT22;9645;51.448;6.260;2022-09-09T06:23:43;16.40;99.90
19025;DHT22;9645;51.448;6.260;2022-09-09T06:26:14;16.60;99.90
19025;DHT22;9645;51.448;6.260;2022-09-09T06:28:43;16.80;99.90
19025;DHT22;9645;51.448;6.260;2022-09-09T06:31:12;17.00;99.90
19025;DHT22;9645;51.448;6.260;2022-09-09T06:33:41;17.10;99.90
19025;DHT22;9645;51.448;6.260;2022-09-09T06:36:11;17.30;99.90
19025;DHT22;9645;51.448;6.260;2022-09-09T06:38:39;17.30;99.90
19025;DHT22;9645;51.448;6.260;2022-09-09T06:41:07;17.20;99.90
19025;DHT22;9645;51.448;6.260;2022-09-09T06:43:36;17.10;99.90
19025;DHT22;9645;51.448;6.260;2022-09-09T06:46:05;16.90;99.90
19025;DHT22;9645;51.448;6.260;2022-09-09T06:48:33;16.80;99.90
19025;DHT22;9645;51.448;6.260;2022-09-09T06:51:01;16.70;99.90
19025;DHT22;9645;51.448;6.260;2022-09-09T06:53:28;16.80;99.90
19025;DHT22;9645;51.448;6.260;2022-09-09T06:55:55;17.00;99.90
19025;DHT22;9645;51.448;6.260;2022-09-09T06:58:22;17.10;99.90
19025;DHT22;9645;51.448;6.260;2022-09-09T07:00:50;17.20;99.90
19025;DHT22;9645;51.448;6.260;2022-09-09T07:03:18;17.40;99.90
19025;DHT22;9645;51.448;6.260;2022-09-09T07:05:54;18.10;99.90
19025;DHT22;9645;51.448;6.260;2022-09-09T07:08:21;18.60;99.90
19025;DHT22;9645;51.448;6.260;2022-09-09T07:10:48;18.30;99.90
19025;DHT22;9645;51.448;6.260;2022-09-09T07:13:17;17.90;99.90
19025;DHT22;9645;51.448;6.260;2022-09-09T07:15:47;17.70;99.90
19025;DHT22;9645;51.448;6.260;2022-09-09T07:18:15;17.50;99.90
19025;DHT22;9645;51.448;6.260;2022-09-09T07:20:42;17.60;99.90
19025;DHT22;9645;51.448;6.260;2022-09-09T07:23:09;21.70;99.90
19025;DHT22;9645;51.448;6.260;2022-09-09T07:37:57;24.30;99.90
19025;DHT22;9645;51.448;6.260;2022-09-09T07:40:24;24.10;99.90
19025;DHT22;9645;51.448;6.260;2022-09-09T07:42:51;24.30;99.90
19025;DHT22;9645;51.448;6.260;2022-09-09T07:45:19;25.30;99.90
19025;DHT22;9645;51.448;6.260;2022-09-09T07:47:46;25.90;99.90
19025;DHT22;9645;51.448;6.260;2022-09-09T07:50:14;26.50;99.90
19025;DHT22;9645;51.448;6.260;2022-09-09T07:52:43;27.60;99.90
19025;DHT22;9645;51.448;6.260;2022-09-09T07:55:10;28.50;99.60
19025;DHT22;9645;51.448;6.260;2022-09-09T07:57:36;28.10;97.30
19025;DHT22;9645;51.448;6.260;2022-09-09T08:00:04;25.90;99.90
19025;DHT22;9645;51.448;6.260;2022-09-09T08:02:32;24.50;99.90
19025;DHT22;9645;51.448;6.260;2022-09-09T08:04:59;23.20;99.90
19025;DHT22;9645;51.448;6.260;2022-09-09T08:07:25;20.60;99.90
19025;DHT22;9645;51.448;6.260;2022-09-09T08:09:54;22.50;99.90
19025;DHT22;9645;51.448;6.260;2022-09-09T08:12:22;21.40;99.90
19025;DHT22;9645;51.448;6.260;2022-09-09T08:14:49;21.40;99.90
19025;DHT22;9645;51.448;6.260;2022-09-09T08:17:17;21.50;99.90
19025;DHT22;9645;51.448;6.260;2022-09-09T08:19:44;21.90;99.90
19025;DHT22;9645;51.448;6.260;2022-09-09T08:22:12;22.80;99.90
19025;DHT22;9645;51.448;6.260;2022-09-09T08:24:39;23.50;99.90
19025;DHT22;9645;51.448;6.260;2022-09-09T08:27:08;23.90;99.90
19025;DHT22;9645;51.448;6.260;2022-09-09T08:29:35;24.70;99.90
19025;DHT22;9645;51.448;6.260;2022-09-09T08:32:03;25.60;99.90
19025;DHT22;9645;51.448;6.260;2022-09-09T08:34:30;25.60;99.90
19025;DHT22;9645;51.448;6.260;2022-09-09T08:36:57;24.90;99.90
19025;DHT22;9645;51.448;6.260;2022-09-09T08:39:24;24.00;99.90
19025;DHT22;9645;51.448;6.260;2022-09-09T08:42:16;23.30;99.90
19025;DHT22;9645;51.448;6.260;2022-09-09T08:44:55;22.30;99.90
19025;DHT22;9645;51.448;6.260;2022-09-09T08:47:31;21.40;99.90
19025;DHT22;9645;51.448;6.260;2022-09-09T08:50:13;20.20;99.90
19025;DHT22;9645;51.448;6.260;2022-09-09T08:52:50;20.20;99.90
19025;DHT22;9645;51.448;6.260;2022-09-09T08:55:24;19.80;99.90
19025;DHT22;9645;51.448;6.260;2022-09-09T08:57:56;19.50;99.90
19025;DHT22;9645;51.448;6.260;2022-09-09T09:00:31;19.50;99.90
19025;DHT22;9645;51.448;6.260;2022-09-09T09:03:06;19.60;99.90
19025;DHT22;9645;51.448;6.260;2022-09-09T09:05:40;20.30;99.90
19025;DHT22;9645;51.448;6.260;2022-09-09T09:08:12;20.60;99.90
19025;DHT22;9645;51.448;6.260;2022-09-09T09:10:46;20.70;99.90
19025;DHT22;9645;51.448;6.260;2022-09-09T09:13:20;20.50;99.90
19025;DHT22;9645;51.448;6.260;2022-09-09T09:15:55;21.00;99.90
19025;DHT22;9645;51.448;6.260;2022-09-09T09:18:25;22.90;99.90
19025;DHT22;9645;51.448;6.260;2022-09-09T09:21:00;24.10;99.90
19025;DHT22;9645;51.448;6.260;2022-09-09T09:23:35;25.50;99.90
19025;DHT22;9645;51.448;6.260;2022-09-09T09:26:07;24.70;99.90
19025;DHT22;9645;51.448;6.260;2022-09-09T09:28:37;23.50;99.90
19025;DHT22;9645;51.448;6.260;2022-09-09T09:31:07;22.40;99.90
19025;DHT22;9645;51.448;6.260;2022-09-09T09:33:38;21.40;99.90
19025;DHT22;9645;51.448;6.260;2022-09-09T09:36:12;20.90;99.90
19025;DHT22;9645;51.448;6.260;2022-09-09T09:38:52;20.70;99.90
19025;DHT22;9645;51.448;6.260;2022-09-09T09:41:29;20.40;99.90
19025;DHT22;9645;51.448;6.260;2022-09-09T09:43:58;20.30;99.90
19025;DHT22;9645;51.448;6.260;2022-09-09T09:46:27;20.50;99.90
19025;DHT22;9645;51.448;6.260;2022-09-09T09:48:58;21.70;99.90
19025;DHT22;9645;51.448;6.260;2022-09-09T09:51:26;20.50;99.90
19025;DHT22;9645;51.448;6.260;2022-09-09T09:54:08;20.50;99.90
19025;DHT22;9645;51.448;6.260;2022-09-09T09:56:36;20.40;99.90
19025;DHT22;9645;51.448;6.260;2022-09-09T09:59:04;20.30;99.90
19025;DHT22;9645;51.448;6.260;2022-09-09T10:01:38;20.00;99.90
19025;DHT22;9645;51.448;6.260;2022-09-09T10:04:15;19.70;99.90
19025;DHT22;9645;51.448;6.260;2022-09-09T10:06:44;19.40;99.90
19025;DHT22;9645;51.448;6.260;2022-09-09T10:09:22;19.10;99.90
19025;DHT22;9645;51.448;6.260;2022-09-09T10:11:55;18.90;99.90
19025;DHT22;9645;51.448;6.260;2022-09-09T10:14:30;18.80;99.90
19025;DHT22;9645;51.448;6.260;2022-09-09T10:17:09;18.60;99.90
19025;DHT22;9645;51.448;6.260;2022-09-09T10:19:37;18.50;99.90
19025;DHT22;9645;51.448;6.260;2022-09-09T10:22:30;18.60;99.90
19025;DHT22;9645;51.448;6.260;2022-09-09T10:25:17;18.60;99.90
19025;DHT22;9645;51.448;6.260;2022-09-09T10:27:55;18.90;99.90
19025;DHT22;9645;51.448;6.260;2022-09-09T10:30:30;19.50;99.90
19025;DHT22;9645;51.448;6.260;2022-09-09T10:33:07;19.90;99.90
19025;DHT22;9645;51.448;6.260;2022-09-09T10:35:39;20.30;99.90
19025;DHT22;9645;51.448;6.260;2022-09-09T10:38:17;20.90;99.90
19025;DHT22;9645;51.448;6.260;2022-09-09T10:41:11;21.30;99.90
19025;DHT22;9645;51.448;6.260;2022-09-09T10:43:55;21.10;99.90
19025;DHT22;9645;51.448;6.260;2022-09-09T10:46:42;20.70;99.90
19025;DHT22;9645;51.448;6.260;2022-09-09T10:49:19;20.40;99.90
19025;DHT22;9645;51.448;6.260;2022-09-09T10:51:56;20.40;99.90
19025;DHT22;9645;51.448;6.260;2022-09-09T10:54:36;20.40;99.90
19025;DHT22;9645;51.448;6.260;2022-09-09T10:57:12;20.20;99.90
19025;DHT22;9645;51.448;6.260;2022-09-09T10:59:43;20.40;99.90
19025;DHT22;9645;51.448;6.260;2022-09-09T11:02:16;20.80;99.90
19025;DHT22;9645;51.448;6.260;2022-09-09T11:04:49;20.80;99.90
19025;DHT22;9645;51.448;6.260;2022-09-09T11:07:27;20.60;99.90
19025;DHT22;9645;51.448;6.260;2022-09-09T11:09:59;20.40;99.90
19025;DHT22;9645;51.448;6.260;2022-09-09T11:12:30;19.80;99.90
19025;DHT22;9645;51.448;6.260;2022-09-09T11:15:01;19.30;99.90
19025;DHT22;9645;51.448;6.260;2022-09-09T11:17:36;19.10;99.90
19025;DHT22;9645;51.448;6.260;2022-09-09T11:20:06;19.10;99.90
19025;DHT22;9645;51.448;6.260;2022-09-09T11:22:39;19.60;99.90
19025;DHT22;9645;51.448;6.260;2022-09-09T11:25:15;21.30;99.90
19025;DHT22;9645;51.448;6.260;2022-09-09T11:27:51;22.30;99.90
19025;DHT22;9645;51.448;6.260;2022-09-09T11:30:29;22.40;99.90
19025;DHT22;9645;51.448;6.260;2022-09-09T11:33:25;22.20;99.90
19025;DHT22;9645;51.448;6.260;2022-09-09T11:36:05;21.60;99.90
19025;DHT22;9645;51.448;6.260;2022-09-09T11:38:42;21.00;99.90
19025;DHT22;9645;51.448;6.260;2022-09-09T11:41:12;20.50;99.90
19025;DHT22;9645;51.448;6.260;2022-09-09T11:43:41;20.10;99.90
19025;DHT22;9645;51.448;6.260;2022-09-09T11:46:10;19.70;99.90
19025;DHT22;9645;51.448;6.260;2022-09-09T11:48:39;19.60;99.90
19025;DHT22;9645;51.448;6.260;2022-09-09T11:51:10;19.30;99.90
19025;DHT22;9645;51.448;6.260;2022-09-09T11:53:48;18.70;99.90
19025;DHT22;9645;51.448;6.260;2022-09-09T11:56:25;18.40;99.90
19025;DHT22;9645;51.448;6.260;2022-09-09T19:08:29;16.00;99.90
19025;DHT22;9645;51.448;6.260;2022-09-09T19:11:00;16.00;99.90
19025;DHT22;9645;51.448;6.260;2022-09-09T19:13:27;16.00;99.90
19025;DHT22;9645;51.448;6.260;2022-09-09T19:15:54;16.00;99.90
19025;DHT22;9645;51.448;6.260;2022-09-09T19:18:21;15.90;99.90
19025;DHT22;9645;51.448;6.260;2022-09-09T19:20:50;16.00;99.90
19025;DHT22;9645;51.448;6.260;2022-09-09T19:23:17;16.00;99.90
19025;DHT22;9645;51.448;6.260;2022-09-09T19:25:44;15.90;99.90
19025;DHT22;9645;51.448;6.260;2022-09-09T19:28:11;15.90;99.90
19025;DHT22;9645;51.448;6.260;2022-09-09T19:30:38;15.90;99.90
19025;DHT22;9645;51.448;6.260;2022-09-09T19:33:05;15.90;99.90
19025;DHT22;9645;51.448;6.260;2022-09-09T19:35:32;15.90;99.90
19025;DHT22;9645;51.448;6.260;2022-09-09T19:38:01;15.90;99.90
19025;DHT22;9645;51.448;6.260;2022-09-09T19:40:27;15.80;99.90
19025;DHT22;9645;51.448;6.260;2022-09-09T19:42:56;15.80;99.90
19025;DHT22;9645;51.448;6.260;2022-09-09T19:45:23;15.70;99.90
19025;DHT22;9645;51.448;6.260;2022-09-09T19:47:50;15.70;99.90
19025;DHT22;9645;51.448;6.260;2022-09-09T19:50:17;15.70;99.90
19025;DHT22;9645;51.448;6.260;2022-09-09T19:52:44;15.60;99.90
19025;DHT22;9645;51.448;6.260;2022-09-09T19:55:12;15.60;99.90
19025;DHT22;9645;51.448;6.260;2022-09-09T19:57:39;15.60;99.90
19025;DHT22;9645;51.448;6.260;2022-09-09T20:00:08;15.60;99.90
19025;DHT22;9645;51.448;6.260;2022-09-09T20:02:36;15.60;99.90
19025;DHT22;9645;51.448;6.260;2022-09-09T20:05:05;15.60;99.90
19025;DHT22;9645;51.448;6.260;2022-09-09T20:07:32;15.60;99.90
19025;DHT22;9645;51.448;6.260;2022-09-09T20:09:59;15.50;99.90
19025;DHT22;9645;51.448;6.260;2022-09-09T20:12:27;15.40;99.90
19025;DHT22;9645;51.448;6.260;2022-09-09T20:14:54;15.40;99.90
19025;DHT22;9645;51.448;6.260;2022-09-09T20:17:21;15.40;99.90
19025;DHT22;9645;51.448;6.260;2022-09-09T20:19:49;15.40;99.90
19025;DHT22;9645;51.448;6.260;2022-09-09T20:22:16;15.30;99.90
19025;DHT22;9645;51.448;6.260;2022-09-09T20:24:43;15.30;99.90
19025;DHT22;9645;51.448;6.260;2022-09-09T20:27:10;15.30;99.90
19025;DHT22;9645;51.448;6.260;2022-09-09T20:29:38;15.30;99.90
19025;DHT22;9645;51.448;6.260;2022-09-09T20:32:05;15.30;99.90
19025;DHT22;9645;51.448;6.260;2022-09-09T20:34:33;15.30;99.90
19025;DHT22;9645;51.448;6.260;2022-09-09T20:36:59;15.20;99.90
19025;DHT22;9645;51.448;6.260;2022-09-09T20:39:27;15.20;99.90
19025;DHT22;9645;51.448;6.260;2022-09-09T20:41:54;15.20;99.90
19025;DHT22;9645;51.448;6.260;2022-09-09T20:44:22;15.20;99.90
19025;DHT22;9645;51.448;6.260;2022-09-09T20:46:52;15.10;99.90
19025;DHT22;9645;51.448;6.260;2022-09-09T20:49:22;15.10;99.90
19025;DHT22;9645;51.448;6.260;2022-09-09T20:51:51;15.10;99.90
19025;DHT22;9645;51.448;6.260;2022-09-09T20:54:20;15.10;99.90
19025;DHT22;9645;51.448;6.260;2022-09-09T20:56:48;15.10;99.90
19025;DHT22;9645;51.448;6.260;2022-09-09T20:59:17;15.10;99.90
19025;DHT22;9645;51.448;6.260;2022-09-09T21:01:44;15.20;99.90
19025;DHT22;9645;51.448;6.260;2022-09-09T21:04:14;15.20;99.90
19025;DHT22;9645;51.448;6.260;2022-09-09T21:06:42;15.30;99.90
19025;DHT22;9645;51.448;6.260;2022-09-09T21:09:09;15.30;99.90
19025;DHT22;9645;51.448;6.260;2022-09-09T21:11:36;15.30;99.90
19025;DHT22;9645;51.448;6.260;2022-09-09T21:14:03;15.30;99.90
19025;DHT22;9645;51.448;6.260;2022-09-09T21:16:31;15.30;99.90
19025;DHT22;9645;51.448;6.260;2022-09-09T21:18:58;15.70;99.90
19025;DHT22;9645;51.448;6.260;2022-09-09T21:21:26;15.40;99.90
19025;DHT22;9645;51.448;6.260;2022-09-09T21:23:54;15.40;99.90
19025;DHT22;9645;51.448;6.260;2022-09-09T21:26:23;15.50;99.90
19025;DHT22;9645;51.448;6.260;2022-09-09T21:28:50;15.10;99.90
19025;DHT22;9645;51.448;6.260;2022-09-09T21:31:18;15.50;99.90
19025;DHT22;9645;51.448;6.260;2022-09-09T21:33:45;15.60;99.90
19025;DHT22;9645;51.448;6.260;2022-09-09T21:36:13;15.50;99.90
19025;DHT22;9645;51.448;6.260;2022-09-09T21:38:41;15.50;99.90
19025;DHT22;9645;51.448;6.260;2022-09-09T21:41:11;15.50;99.90
19025;DHT22;9645;51.448;6.260;2022-09-09T21:43:39;15.60;99.90
19025;DHT22;9645;51.448;6.260;2022-09-09T21:46:07;16.30;99.90
19025;DHT22;9645;51.448;6.260;2022-09-09T21:48:35;15.50;99.90
19025;DHT22;9645;51.448;6.260;2022-09-09T21:51:05;15.60;99.90
19025;DHT22;9645;51.448;6.260;2022-09-09T21:53:32;15.60;99.90
19025;DHT22;9645;51.448;6.260;2022-09-09T21:56:02;15.60;99.90
19025;DHT22;9645;51.448;6.260;2022-09-09T21:58:31;15.60;99.90
19025;DHT22;9645;51.448;6.260;2022-09-09T22:00:58;15.70;99.90
19025;DHT22;9645;51.448;6.260;2022-09-09T22:03:25;15.70;99.90
19025;DHT22;9645;51.448;6.260;2022-09-09T22:05:52;15.60;99.90
19025;DHT22;9645;51.448;6.260;2022-09-09T22:08:19;15.60;99.90
19025;DHT22;9645;51.448;6.260;2022-09-09T22:10:46;15.50;99.90
19025;DHT22;9645;51.448;6.260;2022-09-09T22:13:16;15.50;99.90
19025;DHT22;9645;51.448;6.260;2022-09-09T22:15:45;15.50;99.90
19025;DHT22;9645;51.448;6.260;2022-09-09T22:18:13;15.50;99.90
19025;DHT22;9645;51.448;6.260;2022-09-09T22:20:41;15.50;99.90
19025;DHT22;9645;51.448;6.260;2022-09-09T22:23:09;15.40;99.90
19025;DHT22;9645;51.448;6.260;2022-09-09T22:25:37;15.40;99.90
19025;DHT22;9645;51.448;6.260;2022-09-09T22:28:06;15.40;99.90
19025;DHT22;9645;51.448;6.260;2022-09-09T22:30:35;15.40;99.90
19025;DHT22;9645;51.448;6.260;2022-09-09T22:33:03;15.40;99.90
19025;DHT22;9645;51.448;6.260;2022-09-09T22:35:30;15.40;99.90
19025;DHT22;9645;51.448;6.260;2022-09-09T22:37:58;15.30;99.90
19025;DHT22;9645;51.448;6.260;2022-09-09T22:40:25;15.40;99.90
19025;DHT22;9645;51.448;6.260;2022-09-09T22:42:52;15.30;99.90
19025;DHT22;9645;51.448;6.260;2022-09-09T22:45:19;15.40;99.90
19025;DHT22;9645;51.448;6.260;2022-09-09T22:47:48;15.30;99.90
19025;DHT22;9645;51.448;6.260;2022-09-09T22:50:16;15.30;99.90
19025;DHT22;9645;51.448;6.260;2022-09-09T22:52:43;15.20;99.90
19025;DHT22;9645;51.448;6.260;2022-09-09T22:55:10;15.20;99.90
19025;DHT22;9645;51.448;6.260;2022-09-09T22:57:37;15.20;99.90
19025;DHT22;9645;51.448;6.260;2022-09-09T23:00:05;15.20;99.90
19025;DHT22;9645;51.448;6.260;2022-09-09T23:02:34;15.10;99.90
19025;DHT22;9645;51.448;6.260;2022-09-09T23:05:04;15.10;99.90
19025;DHT22;9645;51.448;6.260;2022-09-09T23:07:34;15.00;99.90
19025;DHT22;9645;51.448;6.260;2022-09-09T23:10:01;15.00;99.90
19025;DHT22;9645;51.448;6.260;2022-09-09T23:12:28;14.90;99.90
19025;DHT22;9645;51.448;6.260;2022-09-09T23:14:55;14.90;99.90
19025;DHT22;9645;51.448;6.260;2022-09-09T23:17:22;14.90;99.90
19025;DHT22;9645;51.448;6.260;2022-09-09T23:19:49;14.80;99.90
19025;DHT22;9645;51.448;6.260;2022-09-09T23:22:23;14.80;99.90
19025;DHT22;9645;51.448;6.260;2022-09-09T23:24:50;14.80;99.90
19025;DHT22;9645;51.448;6.260;2022-09-09T23:27:18;14.90;99.90
19025;DHT22;9645;51.448;6.260;2022-09-09T23:29:47;14.80;99.90
19025;DHT22;9645;51.448;6.260;2022-09-09T23:32:14;14.90;99.90
19025;DHT22;9645;51.448;6.260;2022-09-09T23:34:42;14.80;99.90
19025;DHT22;9645;51.448;6.260;2022-09-09T23:37:11;14.90;99.90
19025;DHT22;9645;51.448;6.260;2022-09-09T23:39:39;14.90;99.90
19025;DHT22;9645;51.448;6.260;2022-09-09T23:42:07;14.90;99.90
19025;DHT22;9645;51.448;6.260;2022-09-09T23:44:34;14.90;99.90
19025;DHT22;9645;51.448;6.260;2022-09-09T23:47:01;14.90;99.90
19025;DHT22;9645;51.448;6.260;2022-09-09T23:49:30;14.90;99.90
19025;DHT22;9645;51.448;6.260;2022-09-09T23:51:57;14.90;99.90
19025;DHT22;9645;51.448;6.260;2022-09-09T23:54:29;14.90;99.90
19025;DHT22;9645;51.448;6.260;2022-09-09T23:56:57;14.90;99.90
19025;DHT22;9645;51.448;6.260;2022-09-09T23:59:24;15.00;99.90
